createdAt,value
2022-08-17T00:00:05.766Z,98941.66
2022-08-17T00:03:18.082Z,98946.53
2022-08-17T00:05:55.455Z,98934.72
2022-08-17T00:08:25.763Z,98939.50
2022-08-17T00:10:54.784Z,98934.50
2022-08-17T00:13:32.765Z,98934.84
2022-08-17T00:16:07.412Z,98940.47
2022-08-17T00:19:01.851Z,98937.25
2022-08-17T00:21:23.781Z,98936.97
2022-08-17T00:23:53.632Z,98931.28
2022-08-17T00:26:43.144Z,98935.78
2022-08-17T00:29:10.106Z,98936.88
2022-08-17T00:31:47.527Z,98931.88
2022-08-17T00:34:15.265Z,98939.38
2022-08-17T00:36:42.746Z,98935.03
2022-08-17T00:39:10.309Z,98930.72
2022-08-17T00:41:42.256Z,98944.63
2022-08-17T00:44:12.278Z,98942.34
2022-08-17T00:46:42.659Z,98945.25
2022-08-17T00:49:11.625Z,98944.00
2022-08-17T00:51:45.059Z,98942.84
2022-08-17T00:54:27.180Z,98943.31
2022-08-17T00:57:02.954Z,98946.88
2022-08-17T00:59:37.877Z,98945.53
2022-08-17T01:02:06.908Z,98948.13
2022-08-17T01:04:34.822Z,98945.00
2022-08-17T01:07:04.485Z,98945.00
2022-08-17T01:09:32.331Z,98950.59
2022-08-17T01:12:00.439Z,98955.47
2022-08-17T01:14:28.082Z,98950.28
2022-08-17T01:16:55.928Z,98963.22
2022-08-17T01:19:29.789Z,98960.38
2022-08-17T01:22:03.927Z,98965.16
2022-08-17T01:24:33.851Z,98967.41
2022-08-17T01:27:02.242Z,98968.25
2022-08-17T01:29:31.246Z,98956.34
2022-08-17T01:32:02.335Z,98971.09
2022-08-17T01:34:42.089Z,98963.38
2022-08-17T01:37:13.636Z,98964.06
2022-08-17T01:39:54.977Z,98954.13
2022-08-17T01:42:40.416Z,98961.72
2022-08-17T01:45:18.175Z,98974.50
2022-08-17T01:47:46.185Z,98966.44
2022-08-17T01:50:17.261Z,98964.66
2022-08-17T01:52:46.197Z,98974.03
2022-08-17T01:55:16.479Z,98972.66
2022-08-17T01:57:45.715Z,98966.94
2022-08-17T02:00:14.273Z,98965.13
2022-08-17T02:02:42.723Z,98962.41
2022-08-17T02:05:10.389Z,98963.22
2022-08-17T02:07:59.700Z,98963.31
2022-08-17T02:10:32.891Z,98960.34
2022-08-17T02:13:03.651Z,98964.06
2022-08-17T02:15:32.122Z,98965.34
2022-08-17T02:17:59.605Z,98957.94
2022-08-17T02:20:41.286Z,98956.72
2022-08-17T02:23:12.141Z,98955.47
2022-08-17T02:25:40.543Z,98950.94
2022-08-17T02:28:08.101Z,98944.75
2022-08-17T02:30:59.513Z,98949.84
2022-08-17T02:33:23.499Z,98948.81
2022-08-17T02:36:12.116Z,98954.03
2022-08-17T02:38:40.706Z,98965.63
2022-08-17T02:41:08.349Z,98959.66
2022-08-17T02:43:36.176Z,98954.84
2022-08-17T02:46:03.751Z,98958.22
2022-08-17T02:48:32.049Z,98951.28
2022-08-17T02:51:00.888Z,98955.31
2022-08-17T02:53:35.551Z,98951.75
2022-08-17T02:56:04.456Z,98944.59
2022-08-17T02:58:35.818Z,98953.44
2022-08-17T03:01:09.722Z,98958.59
2022-08-17T03:03:37.754Z,98960.41
2022-08-17T03:06:07.556Z,98962.47
2022-08-17T03:08:36.402Z,98964.28
2022-08-17T03:11:04.204Z,98961.03
2022-08-17T03:13:31.998Z,98961.94
2022-08-17T03:15:59.461Z,98965.16
2022-08-17T03:18:28.025Z,98971.00
2022-08-17T03:20:59.375Z,98964.75
2022-08-17T03:23:27.611Z,98968.00
2022-08-17T03:25:58.277Z,98976.03
2022-08-17T03:28:26.249Z,98971.19
2022-08-17T03:30:54.317Z,98971.25
2022-08-17T03:33:22.373Z,98972.09
2022-08-17T03:35:50.277Z,98970.56
2022-08-17T03:38:18.303Z,98971.66
2022-08-17T03:40:56.729Z,98966.09
2022-08-17T03:43:31.547Z,98976.22
2022-08-17T03:46:33.917Z,98979.34
2022-08-17T03:49:25.635Z,98981.13
2022-08-17T03:52:13.420Z,98976.66
2022-08-17T03:55:00.838Z,98980.69
2022-08-17T03:57:29.205Z,98978.88
2022-08-17T03:59:57.167Z,98990.91
2022-08-17T04:02:28.537Z,98991.62
2022-08-17T04:04:56.803Z,98985.91
2022-08-17T04:07:27.594Z,98978.59
2022-08-17T04:09:55.254Z,98981.72
2022-08-17T04:12:24.318Z,98981.88
2022-08-17T04:14:54.757Z,98988.56
2022-08-17T04:17:26.219Z,98991.34
2022-08-17T04:19:54.381Z,98987.37
2022-08-17T04:22:33.378Z,98993.41
2022-08-17T04:25:16.941Z,98993.78
2022-08-17T04:27:44.425Z,99002.34
2022-08-17T04:30:12.814Z,99002.34
2022-08-17T04:33:06.043Z,98996.19
2022-08-17T04:35:39.432Z,99006.69
2022-08-17T04:38:09.569Z,99001.59
2022-08-17T04:40:55.973Z,99004.16
2022-08-17T04:43:25.919Z,99003.47
2022-08-17T04:46:02.805Z,99004.53
2022-08-17T04:48:36.584Z,99005.44
2022-08-17T04:51:09.860Z,99010.91
2022-08-17T04:53:42.476Z,99009.69
2022-08-17T04:56:16.968Z,99016.97
2022-08-17T04:58:49.753Z,99007.00
2022-08-17T05:01:22.931Z,99012.53
2022-08-17T05:03:53.565Z,99017.69
2022-08-17T05:06:21.674Z,99018.97
2022-08-17T05:08:49.576Z,99021.81
2022-08-17T05:11:17.490Z,99023.75
2022-08-17T05:13:45.346Z,99027.56
2022-08-17T05:16:12.866Z,99031.78
2022-08-17T05:18:40.370Z,99037.00
2022-08-17T05:21:08.766Z,99038.19
2022-08-17T05:23:42.676Z,99029.38
2022-08-17T05:26:26.190Z,99028.22
2022-08-17T05:28:57.113Z,99032.87
2022-08-17T05:31:28.734Z,99031.41
2022-08-17T05:33:56.343Z,99026.44
2022-08-17T05:36:43.723Z,99032.41
2022-08-17T05:39:15.983Z,99029.50
2022-08-17T05:41:48.101Z,99038.41
2022-08-17T05:44:16.451Z,99026.09
2022-08-17T05:46:48.632Z,99031.91
2022-08-17T05:49:19.303Z,99037.75
2022-08-17T05:51:57.349Z,99032.09
2022-08-17T05:54:34.541Z,99032.00
2022-08-17T05:57:23.239Z,99029.34
2022-08-17T06:00:07.525Z,99031.97
2022-08-17T06:03:12.647Z,99034.44
2022-08-17T06:06:01.309Z,99030.19
2022-08-17T06:08:39.569Z,99036.69
2022-08-17T06:11:23.103Z,99034.50
2022-08-17T06:14:09.328Z,99042.41
2022-08-17T06:16:44.014Z,99034.34
2022-08-17T06:19:19.467Z,99040.66
2022-08-17T06:21:50.317Z,99040.56
2022-08-17T06:24:38.214Z,99038.81
2022-08-17T06:27:36.734Z,99037.81
2022-08-17T06:30:21.694Z,99037.50
2022-08-17T06:32:51.160Z,99032.59
2022-08-17T06:35:42.346Z,99037.69
2022-08-17T06:38:37.565Z,99042.69
2022-08-17T06:41:18.045Z,99046.78
2022-08-17T06:43:50.869Z,99054.38
2022-08-17T06:46:21.227Z,99053.66
2022-08-17T06:49:25.376Z,99058.59
2022-08-17T06:52:01.088Z,99059.91
2022-08-17T06:54:48.988Z,99061.69
2022-08-17T06:57:28.336Z,99058.75
2022-08-17T07:00:00.146Z,99061.38
2022-08-17T07:02:52.075Z,99059.97
2022-08-17T07:05:34.397Z,99062.13
2022-08-17T07:08:11.676Z,99062.47
2022-08-17T07:10:44.942Z,99067.88
2022-08-17T07:13:25.548Z,99057.69
2022-08-17T07:15:58.493Z,99062.63
2022-08-17T07:18:30.263Z,99062.87
2022-08-17T07:21:07.481Z,99058.28
2022-08-17T07:24:04.096Z,99052.22
2022-08-17T07:26:31.857Z,99056.56
2022-08-17T07:28:59.967Z,99053.09
2022-08-17T07:33:25.908Z,99058.25
2022-08-17T07:35:54.097Z,99058.25
2022-08-17T07:38:33.240Z,99062.25
2022-08-17T07:41:05.436Z,99056.47
2022-08-17T07:43:41.969Z,99061.34
2022-08-17T07:46:54.783Z,99054.56
2022-08-17T07:49:33.853Z,99052.22
2022-08-17T07:52:47.962Z,99054.06
2022-08-17T07:54:54.491Z,99053.03
2022-08-17T07:57:29.406Z,99056.84
2022-08-17T08:00:01.485Z,99056.66
2022-08-17T08:02:43.183Z,99059.03
2022-08-17T08:05:13.020Z,99064.72
2022-08-17T08:07:55.437Z,99064.50
2022-08-17T08:10:38.585Z,99056.03
2022-08-17T08:13:29.707Z,99059.62
2022-08-17T08:16:21.387Z,99060.19
2022-08-17T08:18:56.038Z,99050.28
2022-08-17T08:21:49.333Z,99063.75
2022-08-17T08:24:42.029Z,99055.16
2022-08-17T08:27:27.193Z,99059.69
2022-08-17T08:30:05.261Z,99059.12
2022-08-17T08:33:08.525Z,99058.31
2022-08-17T08:37:15.934Z,99057.63
2022-08-17T08:39:43.700Z,99057.41
2022-08-17T08:42:25.102Z,99051.31
2022-08-17T08:45:16.123Z,99058.88
2022-08-17T08:48:46.079Z,99062.09
2022-08-17T08:51:33.342Z,99052.72
2022-08-17T08:54:26.573Z,99051.97
2022-08-17T08:57:25.124Z,99050.84
2022-08-17T09:00:07.183Z,99058.72
2022-08-17T09:02:40.846Z,99045.56
2022-08-17T09:05:15.588Z,99058.59
2022-08-17T09:08:00.121Z,99050.56
2022-08-17T09:10:32.059Z,99061.38
2022-08-17T09:13:10.212Z,99053.88
2022-08-17T09:15:41.306Z,99051.38
2022-08-17T09:19:03.216Z,99048.34
2022-08-17T09:21:33.696Z,99059.69
2022-08-17T09:24:05.839Z,99066.91
2022-08-17T09:26:39.491Z,99062.41
2022-08-17T09:29:13.905Z,99058.91
2022-08-17T09:31:59.706Z,99058.25
2022-08-17T09:34:38.990Z,99051.53
2022-08-17T09:37:22.808Z,99063.81
2022-08-17T09:40:14.161Z,99055.37
2022-08-17T09:43:03.173Z,99052.09
2022-08-17T09:45:39.717Z,99055.22
2022-08-17T09:48:14.372Z,99049.19
2022-08-17T09:51:03.894Z,99048.19
2022-08-17T09:53:36.106Z,99044.66
2022-08-17T09:56:14.135Z,99047.81
2022-08-17T09:58:50.507Z,99048.63
2022-08-17T10:01:24.126Z,99047.56
2022-08-17T10:04:04.437Z,99047.31
2022-08-17T10:06:43.734Z,99044.75
2022-08-17T10:09:24.563Z,99047.59
2022-08-17T10:12:20.526Z,99051.66
2022-08-17T10:14:57.447Z,99046.91
2022-08-17T10:17:36.665Z,99045.75
2022-08-17T10:20:34.282Z,99046.97
2022-08-17T10:23:34.631Z,99038.94
2022-08-17T10:26:15.624Z,99047.06
2022-08-17T10:29:13.354Z,99046.03
2022-08-17T10:31:55.662Z,99039.69
2022-08-17T10:35:09.012Z,99037.34
2022-08-17T10:38:13.729Z,99032.63
2022-08-17T10:40:53.428Z,99043.81
2022-08-17T10:43:31.111Z,99038.88
2022-08-17T10:46:10.496Z,99038.31
2022-08-17T10:49:23.772Z,99040.59
2022-08-17T10:51:56.289Z,99034.06
2022-08-17T10:54:24.018Z,99044.31
2022-08-17T10:56:56.572Z,99033.37
2022-08-17T10:59:36.419Z,99021.47
2022-08-17T11:02:16.217Z,99023.03
2022-08-17T11:05:22.334Z,99024.56
2022-08-17T11:07:58.901Z,99025.66
2022-08-17T11:10:38.989Z,99024.63
2022-08-17T11:13:43.183Z,99029.22
2022-08-17T11:16:35.988Z,99026.34
2022-08-17T11:19:28.617Z,99031.22
2022-08-17T11:22:09.180Z,99025.06
2022-08-17T11:24:43.359Z,99025.69
2022-08-17T11:27:22.110Z,99017.78
2022-08-17T11:30:12.857Z,99019.72
2022-08-17T11:33:00.382Z,99008.34
2022-08-17T11:35:48.520Z,99015.81
2022-08-17T11:38:28.399Z,99007.66
2022-08-17T11:41:14.757Z,99004.34
2022-08-17T11:44:04.006Z,99005.47
2022-08-17T11:47:15.066Z,98998.75
2022-08-17T11:50:16.803Z,99003.63
2022-08-17T11:52:47.986Z,99006.62
2022-08-17T11:55:40.760Z,98988.66
2022-08-17T11:58:37.413Z,98993.72
2022-08-17T12:01:08.544Z,98993.44
2022-08-17T12:03:38.950Z,98992.72
2022-08-17T12:06:31.046Z,98996.38
2022-08-17T12:09:20.208Z,98989.34
2022-08-17T12:12:11.369Z,98983.19
2022-08-17T12:15:11.368Z,98983.41
2022-08-17T12:17:42.912Z,98978.09
2022-08-17T12:20:29.570Z,98979.69
2022-08-17T12:23:12.052Z,98975.38
2022-08-17T12:25:47.884Z,98966.03
2022-08-17T12:28:26.460Z,98964.03
2022-08-17T12:30:57.055Z,98961.06
2022-08-17T12:33:27.909Z,98965.50
2022-08-17T12:35:59.683Z,98964.44
2022-08-17T12:38:34.533Z,98961.94
2022-08-17T12:41:25.609Z,98964.37
2022-08-17T12:44:02.421Z,98962.69
2022-08-17T12:46:44.939Z,98960.22
2022-08-17T12:49:36.467Z,98957.53
2022-08-17T12:52:20.348Z,98957.34
2022-08-17T12:54:51.617Z,98962.50
2022-08-17T12:57:33.133Z,98962.47
2022-08-17T13:00:21.054Z,98963.31
2022-08-17T13:02:52.104Z,98964.69
2022-08-17T13:05:36.058Z,98956.87
2022-08-17T13:08:05.927Z,98957.94
2022-08-17T13:10:39.161Z,98956.37
2022-08-17T13:13:41.180Z,98966.91
2022-08-17T13:16:11.609Z,98955.69
2022-08-17T13:18:43.480Z,98951.34
2022-08-17T13:21:20.006Z,98945.44
2022-08-17T13:23:57.213Z,98952.97
2022-08-17T13:26:30.024Z,98953.62
2022-08-17T13:28:58.453Z,98956.22
2022-08-17T13:31:27.923Z,98948.34
2022-08-17T13:34:14.688Z,98944.66
2022-08-17T13:36:44.058Z,98946.81
2022-08-17T13:39:16.873Z,98938.84
2022-08-17T13:41:44.959Z,98939.31
2022-08-17T13:44:32.253Z,98946.75
2022-08-17T13:47:02.043Z,98944.63
2022-08-17T13:49:41.937Z,98942.16
2022-08-17T13:52:32.091Z,98944.28
2022-08-17T13:55:30.129Z,98942.00
2022-08-17T13:58:05.052Z,98939.75
2022-08-17T14:00:37.459Z,98948.34
2022-08-17T14:03:08.975Z,98932.84
2022-08-17T14:05:40.790Z,98938.47
2022-08-17T14:08:12.008Z,98937.06
2022-08-17T14:10:39.999Z,98930.69
2022-08-17T14:13:07.901Z,98939.56
2022-08-17T14:15:56.041Z,98931.50
2022-08-17T14:18:50.650Z,98931.78
2022-08-17T14:21:11.293Z,98934.81
2022-08-17T14:23:39.320Z,98937.91
2022-08-17T14:26:10.470Z,98934.81
2022-08-17T14:28:38.800Z,98933.81
2022-08-17T14:31:22.657Z,98935.78
2022-08-17T14:33:52.173Z,98932.59
2022-08-17T14:36:19.802Z,98930.84
2022-08-17T14:38:47.604Z,98926.47
2022-08-17T14:41:21.455Z,98933.41
2022-08-17T14:43:52.927Z,98929.50
2022-08-17T14:46:20.545Z,98925.81
2022-08-17T14:48:50.812Z,98918.09
2022-08-17T14:51:23.318Z,98915.31
2022-08-17T14:53:50.835Z,98924.47
2022-08-17T14:56:18.450Z,98926.13
2022-08-17T14:58:46.338Z,98922.09
2022-08-17T15:01:14.441Z,98916.09
2022-08-17T15:03:42.376Z,98917.66
2022-08-17T15:06:14.762Z,98908.09
2022-08-17T15:08:44.126Z,98915.84
2022-08-17T15:11:14.443Z,98906.62
2022-08-17T15:13:52.469Z,98912.59
2022-08-17T15:16:20.954Z,98920.16
2022-08-17T15:18:49.158Z,98915.31
2022-08-17T15:21:19.261Z,98917.47
2022-08-17T15:23:47.801Z,98915.72
2022-08-17T15:26:15.358Z,98917.69
2022-08-17T15:28:42.911Z,98926.53
2022-08-17T15:31:10.846Z,98925.56
2022-08-17T15:33:38.410Z,98921.47
2022-08-17T15:36:07.449Z,98922.09
2022-08-17T15:38:42.149Z,98913.81
2022-08-17T15:41:15.384Z,98914.44
2022-08-17T15:43:52.571Z,98925.84
2022-08-17T15:46:25.645Z,98918.72
2022-08-17T15:49:00.139Z,98922.59
2022-08-17T15:51:36.517Z,98918.84
2022-08-17T15:54:18.711Z,98923.12
2022-08-17T15:56:49.622Z,98921.72
2022-08-17T15:59:17.339Z,98922.94
2022-08-17T16:03:14.560Z,98924.97
2022-08-17T16:04:43.964Z,98928.31
2022-08-17T16:07:17.491Z,98928.78
2022-08-17T16:09:45.528Z,98920.59
2022-08-17T16:12:16.643Z,98922.88
2022-08-17T16:14:47.183Z,98927.66
2022-08-17T16:17:39.912Z,98921.63
2022-08-17T16:20:03.735Z,98918.41
2022-08-17T16:22:39.602Z,98919.66
2022-08-17T16:25:17.566Z,98922.03
2022-08-17T16:27:46.633Z,98924.34
2022-08-17T16:30:17.565Z,98915.09
2022-08-17T16:32:47.032Z,98914.19
2022-08-17T16:35:18.542Z,98914.69
2022-08-17T16:37:46.994Z,98917.03
2022-08-17T16:40:18.127Z,98904.09
2022-08-17T16:42:48.508Z,98912.84
2022-08-17T16:45:20.238Z,98907.78
2022-08-17T16:47:50.959Z,98898.72
2022-08-17T16:50:23.091Z,98906.28
2022-08-17T16:52:53.103Z,98911.00
2022-08-17T16:55:22.316Z,98914.28
2022-08-17T16:57:51.677Z,98910.97
2022-08-17T17:00:20.961Z,98913.84
2022-08-17T17:02:51.499Z,98915.84
2022-08-17T17:05:19.391Z,98912.31
2022-08-17T17:08:07.732Z,98910.94
2022-08-17T17:10:48.461Z,98913.44
2022-08-17T17:13:59.706Z,98921.47
2022-08-17T17:16:53.040Z,98924.16
2022-08-17T17:19:35.755Z,98920.72
2022-08-17T17:22:08.070Z,98930.28
2022-08-17T17:24:56.548Z,98923.59
2022-08-17T17:27:37.753Z,98931.84
2022-08-17T17:30:16.199Z,98936.38
2022-08-17T17:33:04.247Z,98939.09
2022-08-17T17:35:57.125Z,98942.28
2022-08-17T17:38:29.443Z,98934.00
2022-08-17T17:41:04.535Z,98941.63
2022-08-17T17:43:39.618Z,98944.19
2022-08-17T17:46:28.706Z,98952.59
2022-08-17T17:48:58.023Z,98956.34
2022-08-17T17:52:06.888Z,98956.44
2022-08-17T17:54:40.080Z,98962.00
2022-08-17T17:57:24.687Z,98963.59
2022-08-17T18:00:23.642Z,98970.47
2022-08-17T18:03:15.233Z,98963.25
2022-08-17T18:06:02.397Z,98964.94
2022-08-17T18:08:49.779Z,98961.12
2022-08-17T18:11:34.794Z,98969.81
2022-08-17T18:14:30.829Z,98980.81
2022-08-17T18:16:59.760Z,98985.28
2022-08-17T18:19:32.976Z,98981.19
2022-08-17T18:22:06.737Z,98982.34
2022-08-17T18:24:36.106Z,98991.16
2022-08-17T18:27:25.808Z,98992.00
2022-08-17T18:29:56.000Z,99002.28
2022-08-17T18:32:27.651Z,98993.72
2022-08-17T18:34:55.470Z,98995.69
2022-08-17T18:37:42.705Z,99000.41
2022-08-17T18:40:19.812Z,99009.56
2022-08-17T18:43:08.769Z,99000.72
2022-08-17T18:45:51.966Z,99004.00
2022-08-17T18:48:37.128Z,98997.38
2022-08-17T18:51:39.731Z,99000.44
2022-08-17T18:54:21.529Z,99008.19
2022-08-17T18:56:58.147Z,99009.03
2022-08-17T18:59:45.422Z,99015.94
2022-08-17T19:02:27.238Z,99011.47
2022-08-17T19:05:10.652Z,99008.66
2022-08-17T19:07:47.002Z,99013.66
2022-08-17T19:10:25.174Z,99011.44
2022-08-17T19:13:12.308Z,99018.37
2022-08-17T19:16:11.752Z,99010.56
2022-08-17T19:19:04.340Z,99019.09
2022-08-17T19:21:40.431Z,99016.28
2022-08-17T19:24:19.555Z,99017.94
2022-08-17T19:26:56.688Z,99020.44
2022-08-17T19:29:46.106Z,99020.94
2022-08-17T19:32:20.164Z,99027.78
2022-08-17T19:34:49.368Z,99028.13
2022-08-17T19:37:40.881Z,99021.78
2022-08-17T19:40:52.136Z,99022.66
2022-08-17T19:43:33.103Z,99020.72
2022-08-17T19:46:26.028Z,99023.09
2022-08-17T19:49:00.308Z,99027.16
2022-08-17T19:51:43.829Z,99013.62
2022-08-17T19:54:34.419Z,99013.03
2022-08-17T19:57:08.349Z,99029.06
2022-08-17T20:00:08.734Z,99023.41
2022-08-17T20:02:42.446Z,99022.91
2022-08-17T20:05:16.903Z,99017.78
2022-08-17T20:08:00.331Z,99010.59
2022-08-17T20:10:48.110Z,99021.47
2022-08-17T20:13:43.979Z,99017.00
2022-08-17T20:16:12.250Z,99017.78
2022-08-17T20:18:55.867Z,99017.34
2022-08-17T20:21:29.111Z,99012.53
2022-08-17T20:24:06.453Z,99014.38
2022-08-17T20:26:51.241Z,99014.94
2022-08-17T20:29:40.219Z,99013.03
2022-08-17T20:32:17.828Z,99012.06
2022-08-17T20:34:47.658Z,99019.19
2022-08-17T20:37:15.263Z,99015.72
2022-08-17T20:39:46.781Z,99018.09
2022-08-17T20:42:20.666Z,99010.66
2022-08-17T20:44:51.313Z,99005.19
2022-08-17T20:47:28.608Z,99003.78
2022-08-17T20:50:13.003Z,99012.44
2022-08-17T20:52:46.977Z,99008.78
2022-08-17T20:55:51.341Z,99003.28
2022-08-17T20:58:37.076Z,99006.91
2022-08-17T21:01:40.431Z,99006.59
2022-08-17T21:04:47.392Z,99005.19
2022-08-17T21:07:41.061Z,99008.28
2022-08-17T21:10:35.711Z,99006.31
2022-08-17T21:13:15.550Z,99003.72
2022-08-17T21:15:48.604Z,99012.97
2022-08-17T21:18:28.356Z,99003.13
2022-08-17T21:21:24.252Z,99003.28
2022-08-17T21:24:11.675Z,99001.47
2022-08-17T21:26:58.213Z,98999.78
2022-08-17T21:29:31.067Z,99013.50
2022-08-17T21:32:05.512Z,99009.31
2022-08-17T21:34:43.213Z,99015.50
2022-08-17T21:37:20.314Z,99016.97
2022-08-17T21:39:53.598Z,99020.34
2022-08-17T21:42:34.020Z,99018.16
2022-08-17T21:45:38.893Z,99022.59
2022-08-17T21:48:14.536Z,99023.34
2022-08-17T21:50:44.976Z,99020.50
2022-08-17T21:53:21.740Z,99015.91
2022-08-17T21:55:50.538Z,99023.66
2022-08-17T21:58:40.417Z,99027.34
2022-08-17T22:01:21.990Z,99034.34
2022-08-17T22:04:01.715Z,99038.69
2022-08-17T22:06:38.334Z,99038.63
2022-08-17T22:09:10.694Z,99041.37
2022-08-17T22:11:58.174Z,99046.38
2022-08-17T22:14:52.913Z,99046.94
2022-08-17T22:17:22.892Z,99046.38
2022-08-17T22:19:54.078Z,99056.50
2022-08-17T22:22:28.758Z,99049.50
2022-08-17T22:24:59.416Z,99049.88
2022-08-17T22:27:49.290Z,99056.66
2022-08-17T22:30:26.159Z,99065.19
2022-08-17T22:32:54.114Z,99062.81
2022-08-17T22:35:32.630Z,99059.53
2022-08-17T22:38:18.494Z,99057.75
2022-08-17T22:40:52.018Z,99065.75
2022-08-17T22:43:26.233Z,99060.38
2022-08-17T22:45:56.918Z,99062.28
2022-08-17T22:48:28.383Z,99058.44
2022-08-17T22:51:13.947Z,99068.00
2022-08-17T22:54:09.943Z,99067.91
2022-08-17T22:56:56.985Z,99064.53
2022-08-17T22:59:46.031Z,99070.75
2022-08-17T23:02:19.251Z,99076.84
2022-08-17T23:04:51.320Z,99082.84
2022-08-17T23:07:20.661Z,99090.50
2022-08-17T23:09:48.308Z,99084.78
2022-08-17T23:12:23.621Z,99076.06
2022-08-17T23:14:56.888Z,99089.56
2022-08-17T23:17:24.509Z,99091.25
2022-08-17T23:19:53.181Z,99092.69
2022-08-17T23:22:20.751Z,99088.50
2022-08-17T23:24:51.526Z,99095.66
2022-08-17T23:27:20.265Z,99093.50
2022-08-17T23:29:48.722Z,99104.72
2022-08-17T23:32:17.907Z,99102.47
2022-08-17T23:34:48.778Z,99093.41
2022-08-17T23:37:17.863Z,99091.34
2022-08-17T23:39:45.821Z,99090.84
2022-08-17T23:42:17.412Z,99086.31
2022-08-17T23:44:46.182Z,99076.97
2022-08-17T23:47:14.664Z,99075.59
2022-08-17T23:49:42.555Z,99076.97
2022-08-17T23:52:15.148Z,99071.00
2022-08-17T23:54:46.645Z,99080.28
2022-08-17T23:57:16.813Z,99087.25
2022-08-17T23:59:45.080Z,99069.53
